63.5°F
Current conditions from King Hill
Updated every 5 minutes
 
  Tuesday July 29, 2014

Station Historical Data
Daily Summary for February 26, 2012 Units:  Metric    English   Both
« Previous Day
Next Day »
Daily Weekly Monthly Yearly Custom
  High: Low: Average:
Temperature: -3.7 °C -12.9 °C -8.7 °C
Dew Point: -12.8 °C -18.4 °C -15.9 °C
Humidity: 75% 32% 57%
Wind Speed: 16.1km/h 1.6km/h 5km/h
Wind Gust: 25.7km/h - -
Wind- - West
Pressure: 1030.4 hPa 1012.4 hPa -
Precipitation: 0 mm    
Historical Graphs
 
 
Tabular Data for February 26, 2012
Time Temperature Dew Point Pressure Wind Wind Speed Wind Gust Humidity Daily Rainfall
00:04 -8.3 °C -12.8 °C 1012.4 hPa NW 9.7 km/h 20.9 km/h 70% 0 mm
00:09 -8.3 °C -12.8 °C 1012.4 hPa NW 6.4 km/h 20.9 km/h 70% 0 mm
00:14 -8.4 °C -12.9 °C 1012.4 hPa NNW 11.3 km/h 20.9 km/h 70% 0 mm
00:19 -8.5 °C -13 °C 1012.4 hPa NW 8 km/h 17.7 km/h 70% 0 mm
00:24 -8.6 °C -13.1 °C 1012.8 hPa WNW 6.4 km/h 16.1 km/h 70% 0 mm
00:29 -8.7 °C -13.2 °C 1012.8 hPa WNW 8 km/h 19.3 km/h 70% 0 mm
00:34 -8.7 °C -13.2 °C 1012.8 hPa WNW 8 km/h 19.3 km/h 70% 0 mm
00:39 -8.7 °C -13.4 °C 1013.1 hPa WNW 8 km/h 22.5 km/h 69% 0 mm
00:44 -8.7 °C -13.4 °C 1013.4 hPa WNW 11.3 km/h 22.5 km/h 69% 0 mm
00:49 -8.8 °C -13.4 °C 1013.4 hPa WNW 16.1 km/h 25.7 km/h 69% 0 mm
00:54 -8.9 °C -13.6 °C 1013.8 hPa WNW 9.7 km/h 25.7 km/h 69% 0 mm
00:59 -9 °C -13.7 °C 1013.8 hPa WNW 6.4 km/h 19.3 km/h 69% 0 mm
01:04 -9.2 °C -13.9 °C 1013.8 hPa WNW 11.3 km/h 17.7 km/h 69% 0 mm
01:10 -9.2 °C -13.9 °C 1014.1 hPa WNW 6.4 km/h 17.7 km/h 69% 0 mm
01:15 -9.4 °C -14 °C 1014.1 hPa NW 6.4 km/h 16.1 km/h 69% 0 mm
01:20 -9.5 °C -14.1 °C 1014.4 hPa WNW 6.4 km/h 11.3 km/h 69% 0 mm
01:25 -9.5 °C -14.1 °C 1014.4 hPa WNW 3.2 km/h 16.1 km/h 69% 0 mm
01:30 -9.7 °C -14.3 °C 1014.4 hPa WNW 6.4 km/h 16.1 km/h 69% 0 mm
01:35 -9.7 °C -14.3 °C 1014.8 hPa WNW 8 km/h 14.5 km/h 69% 0 mm
01:40 -9.8 °C -14.4 °C 1014.8 hPa NW 3.2 km/h 12.9 km/h 69% 0 mm
01:45 -9.9 °C -14.3 °C 1015.1 hPa NW 4.8 km/h 12.9 km/h 70% 0 mm
01:50 -9.9 °C -14.6 °C 1015.1 hPa WNW 3.2 km/h 11.3 km/h 69% 0 mm
01:55 -10.2 °C -14.6 °C 1015.1 hPa WNW 4.8 km/h 11.3 km/h 70% 0 mm
02:00 -10.2 °C -14.6 °C 1015.5 hPa NW 3.2 km/h 11.3 km/h 70% 0 mm
02:05 -10.2 °C -14.7 °C 1015.5 hPa West 1.6 km/h 11.3 km/h 70% 0 mm
02:10 -10.7 °C -15.1 °C 1015.5 hPa West 1.6 km/h 8 km/h 70% 0 mm
02:15 -11.2 °C -15.4 °C 1015.8 hPa WSW 1.6 km/h 6.4 km/h 71% 0 mm
02:20 -11.4 °C -15.5 °C 1015.8 hPa Calm   6.4 km/h 72% 0 mm
02:25 -11.6 °C -15.5 °C 1015.8 hPa Calm   4.8 km/h 73% 0 mm
02:30 -11.6 °C -15.3 °C 1016.1 hPa West 1.6 km/h 6.4 km/h 74% 0 mm
02:40 -11.7 °C -15.4 °C 1016.5 hPa Calm   6.4 km/h 74% 0 mm
02:45 -11.8 °C -15.3 °C 1016.5 hPa WSW 3.2 km/h 8 km/h 75% 0 mm
02:50 -11.8 °C -15.3 °C 1016.5 hPa WSW 1.6 km/h 8 km/h 75% 0 mm
02:55 -11.6 °C -15.1 °C 1016.8 hPa West 4.8 km/h 11.3 km/h 75% 0 mm
03:00 -11.4 °C -15.1 °C 1016.8 hPa West 4.8 km/h 14.5 km/h 74% 0 mm
03:05 -11.2 °C -14.9 °C 1016.8 hPa WSW 1.6 km/h 14.5 km/h 74% 0 mm
03:10 -11.3 °C -15.2 °C 1017.2 hPa West 1.6 km/h 8 km/h 73% 0 mm
03:15 -11.4 °C -15.3 °C 1017.2 hPa WNW 1.6 km/h 8 km/h 73% 0 mm
03:20 -11.6 °C -15.4 °C 1017.5 hPa WNW 1.6 km/h 9.7 km/h 73% 0 mm
03:25 -11.6 °C -15.3 °C 1017.5 hPa West 3.2 km/h 9.7 km/h 74% 0 mm
03:30 -11.5 °C -15.2 °C 1017.5 hPa West 6.4 km/h 14.5 km/h 74% 0 mm
03:35 -11.3 °C -15.2 °C 1017.8 hPa West 6.4 km/h 14.5 km/h 73% 0 mm
03:40 -11.1 °C -15.1 °C 1017.8 hPa West 6.4 km/h 16.1 km/h 72% 0 mm
03:45 -10.9 °C -15 °C 1018.2 hPa West 8 km/h 16.1 km/h 72% 0 mm
03:50 -10.9 °C -15.2 °C 1018.2 hPa West 3.2 km/h 14.5 km/h 71% 0 mm
03:55 -10.9 °C -15.2 °C 1018.5 hPa West 6.4 km/h 11.3 km/h 71% 0 mm
04:00 -11 °C -15.2 °C 1018.8 hPa WNW 3.2 km/h 11.3 km/h 71% 0 mm
04:05 -10.9 °C -15.2 °C 1018.8 hPa West 4.8 km/h 14.5 km/h 71% 0 mm
04:10 -10.9 °C -15.1 °C 1018.8 hPa West 4.8 km/h 14.5 km/h 71% 0 mm
04:15 -10.8 °C -15.1 °C 1018.8 hPa WNW 6.4 km/h 14.5 km/h 71% 0 mm
04:20 -10.8 °C -15.2 °C 1019.2 hPa WNW 8 km/h 12.9 km/h 70% 0 mm
04:25 -10.7 °C -15.1 °C 1019.5 hPa WNW 6.4 km/h 12.9 km/h 70% 0 mm
04:30 -10.7 °C -15.1 °C 1019.5 hPa WNW 8 km/h 12.9 km/h 70% 0 mm
04:35 -10.7 °C -15.2 °C 1019.9 hPa West 4.8 km/h 11.3 km/h 69% 0 mm
04:40 -10.7 °C -15.2 °C 1019.9 hPa West 4.8 km/h 11.3 km/h 69% 0 mm
04:45 -10.8 °C -15.3 °C 1020.2 hPa West 1.6 km/h 9.7 km/h 69% 0 mm
04:50 -11.1 °C -15.6 °C 1020.2 hPa West 1.6 km/h 9.7 km/h 69% 0 mm
04:55 -11.2 °C -15.8 °C 1020.5 hPa West 1.6 km/h 9.7 km/h 69% 0 mm
05:00 -11.4 °C -15.8 °C 1020.5 hPa West 4.8 km/h 9.7 km/h 70% 0 mm
05:05 -11.3 °C -15.6 °C 1020.5 hPa West 4.8 km/h 9.7 km/h 71% 0 mm
05:15 -11.5 °C -15.9 °C 1020.9 hPa WSW 4.8 km/h 11.3 km/h 70% 0 mm
05:20 -11.7 °C -15.9 °C 1021.2 hPa West 3.2 km/h 9.7 km/h 71% 0 mm
05:25 -11.8 °C -16 °C 1021.2 hPa West 3.2 km/h 9.7 km/h 71% 0 mm
05:30 -11.8 °C -16.1 °C 1021.2 hPa West 3.2 km/h 6.4 km/h 71% 0 mm
05:35 -11.8 °C -16 °C 1021.6 hPa WNW 6.4 km/h 12.9 km/h 71% 0 mm
05:40 -11.6 °C -15.8 °C 1021.6 hPa NW 8 km/h 12.9 km/h 71% 0 mm
05:50 -11.4 °C -15.8 °C 1021.9 hPa WNW 4.8 km/h 12.9 km/h 70% 0 mm
05:55 -11.5 °C -16.1 °C 1021.9 hPa WNW 4.8 km/h 12.9 km/h 69% 0 mm
05:59 -11.7 °C -16.1 °C 1022.2 hPa WNW 4.8 km/h 11.3 km/h 70% 0 mm
06:05 -11.7 °C -16.1 °C 1022.2 hPa WNW 4.8 km/h 12.9 km/h 70% 0 mm
06:10 -11.6 °C -15.9 °C 1022.2 hPa NW 8 km/h 19.3 km/h 70% 0 mm
06:15 -11.4 °C -15.8 °C 1022.6 hPa WNW 8 km/h 19.3 km/h 70% 0 mm
06:20 -11.3 °C -15.8 °C 1022.6 hPa WNW 8 km/h 17.7 km/h 69% 0 mm
06:25 -11.3 °C -15.9 °C 1022.6 hPa WNW 8 km/h 17.7 km/h 69% 0 mm
06:30 -11.5 °C -16.1 °C 1022.6 hPa WNW 4.8 km/h 14.5 km/h 69% 0 mm
06:40 -12 °C -16.6 °C 1022.6 hPa WNW 1.6 km/h 9.7 km/h 69% 0 mm
06:45 -12.2 °C -16.5 °C 1022.9 hPa NW 4.8 km/h 9.7 km/h 70% 0 mm
06:50 -12.2 °C -16.3 °C 1023.2 hPa WNW 3.2 km/h 11.3 km/h 71% 0 mm
06:55 -12.2 °C -16.3 °C 1023.2 hPa WNW 3.2 km/h 11.3 km/h 71% 0 mm
07:00 -12.1 °C -16.2 °C 1023.2 hPa WNW 3.2 km/h 9.7 km/h 71% 0 mm
07:05 -12.1 °C -16.2 °C 1023.2 hPa WNW 3.2 km/h 9.7 km/h 71% 0 mm
07:10 -12.1 °C -16.4 °C 1023.6 hPa WNW 3.2 km/h 8 km/h 70% 0 mm
07:15 -12 °C -16.3 °C 1023.6 hPa WNW 3.2 km/h 8 km/h 70% 0 mm
07:20 -12 °C -16.3 °C 1023.9 hPa Calm   8 km/h 70% 0 mm
07:25 -11.9 °C -16.3 °C 1023.9 hPa Calm   4.8 km/h 70% 0 mm
07:30 -12 °C -16.3 °C 1024.3 hPa WNW 3.2 km/h 8 km/h 70% 0 mm
07:35 -12 °C -16.3 °C 1024.3 hPa WNW 3.2 km/h 9.7 km/h 70% 0 mm
07:45 -12 °C -16.3 °C 1024.6 hPa Calm   4.8 km/h 70% 0 mm
07:50 -12 °C -16.3 °C 1024.6 hPa Calm   3.2 km/h 70% 0 mm
07:55 -12.1 °C -16.2 °C 1024.9 hPa Calm   3.2 km/h 71% 0 mm
08:00 -12.1 °C -16.4 °C 1024.9 hPa Calm   3.2 km/h 70% 0 mm
08:05 -12.2 °C -16.5 °C 1024.9 hPa Calm   6.4 km/h 70% 0 mm
08:10 -11.8 °C -16.2 °C 1025.3 hPa West 4.8 km/h 8 km/h 70% 0 mm
08:15 -11.3 °C -15.8 °C 1025.3 hPa West 3.2 km/h 8 km/h 69% 0 mm
08:20 -11.1 °C -15.8 °C 1025.3 hPa WNW 6.4 km/h 11.3 km/h 68% 0 mm
08:25 -10.9 °C -15.7 °C 1025.3 hPa WNW 1.6 km/h 12.9 km/h 68% 0 mm
08:29 -10.6 °C -15.6 °C 1025.6 hPa WNW 3.2 km/h 12.9 km/h 67% 0 mm
08:35 -10.3 °C -15.2 °C 1025.6 hPa West 4.8 km/h 11.3 km/h 67% 0 mm
08:40 -10 °C -15.3 °C 1025.6 hPa West 3.2 km/h 11.3 km/h 65% 0 mm
08:45 -9.8 °C -15.4 °C 1025.6 hPa West 3.2 km/h 11.3 km/h 64% 0 mm
08:50 -9.7 °C -15.4 °C 1025.6 hPa NW 4.8 km/h 11.3 km/h 63% 0 mm
08:55 -9.4 °C -15.1 °C 1026 hPa WNW 3.2 km/h 11.3 km/h 63% 0 mm
09:00 -9.3 °C -15.2 °C 1026 hPa WNW 6.4 km/h 12.9 km/h 62% 0 mm
09:05 -9.3 °C -15.4 °C 1026 hPa West 8 km/h 12.9 km/h 61% 0 mm
09:10 -9.2 °C -15.4 °C 1026 hPa WNW 6.4 km/h 12.9 km/h 61% 0 mm
09:15 -9 °C -15.3 °C 1026 hPa WNW 1.6 km/h 12.9 km/h 60% 0 mm
09:20 -8.8 °C -15.4 °C 1025.6 hPa WNW 1.6 km/h 8 km/h 59% 0 mm
09:24 -8.7 °C -15.5 °C 1025.6 hPa WNW 4.8 km/h 9.7 km/h 58% 0 mm
09:30 -8.8 °C -15.6 °C 1025.6 hPa WNW 3.2 km/h 11.3 km/h 58% 0 mm
09:35 -8.7 °C -15.4 °C 1025.6 hPa NNW 1.6 km/h 11.3 km/h 58% 0 mm
09:45 -8 °C -15.2 °C 1026 hPa NW 1.6 km/h 11.3 km/h 56% 0 mm
09:50 -8.1 °C -15.1 °C 1026 hPa NNW 1.6 km/h 11.3 km/h 57% 0 mm
09:55 -7.8 °C -15.1 °C 1026 hPa Calm   9.7 km/h 56% 0 mm
09:59 -7.7 °C -15 °C 1026 hPa North 1.6 km/h 9.7 km/h 56% 0 mm
10:05 -7.4 °C -14.9 °C 1026.3 hPa North 3.2 km/h 9.7 km/h 55% 0 mm
10:10 -7.3 °C -15.1 °C 1026.3 hPa NNE 1.6 km/h 6.4 km/h 54% 0 mm
10:14 -7.2 °C -15.1 °C 1026.3 hPa North 1.6 km/h 9.7 km/h 53% 0 mm
10:20 -6.9 °C -15.2 °C 1026.3 hPa North 3.2 km/h 9.7 km/h 52% 0 mm
10:25 -7 °C -15.7 °C 1026.3 hPa North 3.2 km/h 9.7 km/h 50% 0 mm
10:30 -7.2 °C -16.3 °C 1026.3 hPa NW 3.2 km/h 12.9 km/h 48% 0 mm
10:35 -7.4 °C -16.3 °C 1026.6 hPa NW 4.8 km/h 12.9 km/h 49% 0 mm
10:40 -7.7 °C -16.6 °C 1026.6 hPa West 3.2 km/h 12.9 km/h 49% 0 mm
10:45 -7.8 °C -16.7 °C 1026.6 hPa West 8 km/h 17.7 km/h 49% 0 mm
10:55 -7.5 °C -16.2 °C 1026.6 hPa NNW 6.4 km/h 14.5 km/h 50% 0 mm
11:00 -7.2 °C -16.3 °C 1026.6 hPa NW 1.6 km/h 14.5 km/h 48% 0 mm
11:04 -7.1 °C -16.7 °C 1027 hPa WNW 11.3 km/h 17.7 km/h 46% 0 mm
11:10 -7.3 °C -16.7 °C 1026.6 hPa NNW 6.4 km/h 17.7 km/h 47% 0 mm
11:15 -6.9 °C -16.1 °C 1027 hPa North 4.8 km/h 17.7 km/h 48% 0 mm
11:19 -6.7 °C -16.4 °C 1027 hPa NW 6.4 km/h 17.7 km/h 46% 0 mm
11:24 -7 °C -16.7 °C 1027 hPa NW 11.3 km/h 19.3 km/h 46% 0 mm
11:30 -7.2 °C -16.6 °C 1027 hPa WNW 3.2 km/h 19.3 km/h 47% 0 mm
11:40 -6.4 °C -15.8 °C 1027 hPa NW 8 km/h 16.1 km/h 47% 0 mm
11:45 -6.8 °C -17 °C 1027 hPa WNW 6.4 km/h 14.5 km/h 44% 0 mm
11:50 -6.8 °C -16.7 °C 1027 hPa NW 6.4 km/h 16.1 km/h 45% 0 mm
11:55 -6.7 °C -16.9 °C 1027 hPa WNW 8 km/h 16.1 km/h 44% 0 mm
12:00 -6.3 °C -16.6 °C 1027 hPa WNW 8 km/h 17.7 km/h 44% 0 mm
12:04 -5.8 °C -16.2 °C 1026.6 hPa NNW 4.8 km/h 17.7 km/h 44% 0 mm
12:10 -6.2 °C -16.8 °C 1027 hPa WNW 8 km/h 16.1 km/h 43% 0 mm
12:15 -6.3 °C -16.6 °C 1027 hPa West 6.4 km/h 16.1 km/h 44% 0 mm
12:20 -6.2 °C -16.7 °C 1026.6 hPa NW 6.4 km/h 16.1 km/h 43% 0 mm
12:25 -6 °C -17.2 °C 1027 hPa NW 11.3 km/h 19.3 km/h 41% 0 mm
12:35 -5.8 °C -17.3 °C 1026.6 hPa WNW 1.6 km/h 16.1 km/h 40% 0 mm
12:40 -5.3 °C -16.8 °C 1026.6 hPa NNW 6.4 km/h 12.9 km/h 40% 0 mm
12:45 -5 °C -16.8 °C 1026.6 hPa NNW 8 km/h 16.1 km/h 39% 0 mm
12:49 -5.1 °C -17.5 °C 1026.6 hPa NW 8 km/h 16.1 km/h 37% 0 mm
12:55 -5.3 °C -17.4 °C 1026.6 hPa WNW 8 km/h 14.5 km/h 38% 0 mm
12:59 -5.3 °C -18.1 °C 1026.6 hPa NW 6.4 km/h 16.1 km/h 36% 0 mm
13:04 -5.2 °C -17.7 °C 1026.6 hPa NNW 4.8 km/h 16.1 km/h 37% 0 mm
13:10 -5.1 °C -17.8 °C 1027 hPa WNW 8 km/h 17.7 km/h 36% 0 mm
13:15 -5.4 °C -18.4 °C 1027 hPa WNW 12.9 km/h 19.3 km/h 35% 0 mm
13:19 -5.3 °C -18.1 °C 1027 hPa NW 4.8 km/h 19.3 km/h 36% 0 mm
13:25 -4.9 °C -17.7 °C 1027 hPa NNW 8 km/h 20.9 km/h 36% 0 mm
13:30 -4.8 °C -17.3 °C 1027 hPa NW 6.4 km/h 20.9 km/h 37% 0 mm
13:35 -4.6 °C -17.4 °C 1027 hPa NW 8 km/h 19.3 km/h 36% 0 mm
13:45 -3.9 °C -16.8 °C 1027 hPa North 4.8 km/h 12.9 km/h 36% 0 mm
13:50 -4.1 °C -16.9 °C 1027 hPa NNW 8 km/h 14.5 km/h 36% 0 mm
14:00 -4.3 °C -17.1 °C 1027 hPa NNW 6.4 km/h 12.9 km/h 36% 0 mm
14:05 -4.4 °C -17.6 °C 1027 hPa NNW 4.8 km/h 14.5 km/h 35% 0 mm
14:09 -4.1 °C -17.3 °C 1027.3 hPa NNW 3.2 km/h 14.5 km/h 35% 0 mm
14:15 -3.9 °C -17.5 °C 1027.3 hPa NW 4.8 km/h 14.5 km/h 34% 0 mm
14:20 -3.9 °C -17.2 °C 1027 hPa North 6.4 km/h 14.5 km/h 35% 0 mm
14:25 -3.8 °C -18.1 °C 1027 hPa Calm   12.9 km/h 32% 0 mm
14:30 -3.7 °C -17.3 °C 1027.3 hPa NNE 3.2 km/h 12.9 km/h 34% 0 mm
14:35 -3.7 °C -16.9 °C 1027.3 hPa Calm   14.5 km/h 35% 0 mm
14:40 -3.7 °C -17.3 °C 1027.3 hPa NNE 4.8 km/h 14.5 km/h 34% 0 mm
14:45 -3.8 °C -17.1 °C 1027.7 hPa NW 3.2 km/h 12.9 km/h 35% 0 mm
14:50 -4 °C -17.6 °C 1028 hPa NW 8 km/h 14.5 km/h 34% 0 mm
14:55 -4 °C -17.2 °C 1028 hPa NNW 1.6 km/h 16.1 km/h 35% 0 mm
14:59 -4 °C -16.9 °C 1028 hPa NNW 4.8 km/h 17.7 km/h 36% 0 mm
15:05 -4.3 °C -17.5 °C 1028 hPa NW 9.7 km/h 24.1 km/h 35% 0 mm
15:10 -4.4 °C -16.9 °C 1028.3 hPa NW 8 km/h 24.1 km/h 37% 0 mm
15:15 -4.3 °C -16.8 °C 1028.3 hPa NNW 4.8 km/h 19.3 km/h 37% 0 mm
15:20 -4.2 °C -16.8 °C 1028.3 hPa NNW 4.8 km/h 11.3 km/h 37% 0 mm
15:25 -4.3 °C -16.8 °C 1028.3 hPa North 6.4 km/h 20.9 km/h 37% 0 mm
15:30 -4.3 °C -16.5 °C 1028.3 hPa NNW 1.6 km/h 20.9 km/h 38% 0 mm
15:35 -4.3 °C -16.8 °C 1028.3 hPa North 3.2 km/h 14.5 km/h 37% 0 mm
15:45 -4.2 °C -16.4 °C 1028.3 hPa NNE 3.2 km/h 11.3 km/h 38% 0 mm
15:50 -4.1 °C -16.6 °C 1028.3 hPa NNW 1.6 km/h 11.3 km/h 37% 0 mm
15:54 -4.1 °C -16.6 °C 1028.7 hPa NNW 4.8 km/h 11.3 km/h 37% 0 mm
16:00 -4.6 °C -16.7 °C 1028.3 hPa NNE 1.6 km/h 11.3 km/h 38% 0 mm
16:05 -4.8 °C -16.7 °C 1028.3 hPa Calm   8 km/h 39% 0 mm
16:09 -4.6 °C -16.5 °C 1028.7 hPa North 3.2 km/h 12.9 km/h 39% 0 mm
16:15 -4.6 °C -17.1 °C 1028.7 hPa NW 6.4 km/h 12.9 km/h 37% 0 mm
16:20 -4.5 °C -16.7 °C 1028.3 hPa NNW 3.2 km/h 12.9 km/h 38% 0 mm
16:24 -4.5 °C -16.1 °C 1028.3 hPa Calm   8 km/h 40% 0 mm
16:30 -4.8 °C -16.3 °C 1028.3 hPa NNE 1.6 km/h 6.4 km/h 40% 0 mm
16:35 -5 °C -16.8 °C 1028.3 hPa NNE 1.6 km/h 9.7 km/h 39% 0 mm
16:40 -5.1 °C -16.3 °C 1028.3 hPa Calm   9.7 km/h 41% 0 mm
16:45 -5.1 °C -16.6 °C 1028.3 hPa North 1.6 km/h 4.8 km/h 40% 0 mm
16:50 -5.3 °C -17.1 °C 1028.3 hPa NNW 1.6 km/h 9.7 km/h 39% 0 mm
16:55 -5.6 °C -16.7 °C 1028.3 hPa NNE 1.6 km/h 9.7 km/h 41% 0 mm
17:00 -5.9 °C -17.1 °C 1028.7 hPa Calm   9.7 km/h 41% 0 mm
17:05 -6.1 °C -16.6 °C 1028.7 hPa NNE 1.6 km/h 6.4 km/h 43% 0 mm
17:09 -6.2 °C -16.4 °C 1028.7 hPa Calm   11.3 km/h 44% 0 mm
17:15 -6.4 °C -16.4 °C 1028.7 hPa NNE 1.6 km/h 11.3 km/h 45% 0 mm
17:20 -6.6 °C -16.3 °C 1028.7 hPa NNE 3.2 km/h 8 km/h 46% 0 mm
17:25 -6.8 °C -16.6 °C 1028.7 hPa Calm   8 km/h 46% 0 mm
17:30 -7.1 °C -17 °C 1029 hPa Calm   6.4 km/h 45% 0 mm
17:34 -7.2 °C -16.6 °C 1029 hPa Calm   6.4 km/h 47% 0 mm
17:40 -7.2 °C -16.8 °C 1029 hPa Calm   3.2 km/h 46% 0 mm
17:45 -7.2 °C -16.6 °C 1029 hPa Calm     47% 0 mm
17:50 -7.3 °C -16.4 °C 1029 hPa Calm     48% 0 mm
17:54 -7.3 °C -16.7 °C 1029 hPa NNE 1.6 km/h 6.4 km/h 47% 0 mm
18:00 -7.2 °C -16.3 °C 1029 hPa Calm   6.4 km/h 48% 0 mm
18:05 -7.1 °C -16.3 °C 1029.3 hPa Calm   6.4 km/h 48% 0 mm
18:10 -7.1 °C -16.3 °C 1029.3 hPa Calm   6.4 km/h 48% 0 mm
18:15 -7.1 °C -16 °C 1029.3 hPa Calm   6.4 km/h 49% 0 mm
18:19 -7.2 °C -16.6 °C 1029.3 hPa NNE 3.2 km/h 9.7 km/h 47% 0 mm
18:25 -7.2 °C -16.3 °C 1029.3 hPa Calm   9.7 km/h 48% 0 mm
18:30 -7.3 °C -15.9 °C 1029.3 hPa Calm   3.2 km/h 50% 0 mm
18:35 -7.3 °C -16.2 °C 1029.3 hPa Calm   3.2 km/h 49% 0 mm
18:40 -7.5 °C -16.2 °C 1029.3 hPa Calm     50% 0 mm
18:45 -7.6 °C -16.2 °C 1029.3 hPa Calm   4.8 km/h 50% 0 mm
18:50 -7.8 °C -16.2 °C 1029.7 hPa Calm   4.8 km/h 51% 0 mm
19:00 -8 °C -16.6 °C 1029.7 hPa Calm   4.8 km/h 50% 0 mm
19:04 -8.1 °C -16.5 °C 1029.7 hPa Calm   3.2 km/h 51% 0 mm
19:10 -8.2 °C -16.6 °C 1029.7 hPa Calm     51% 0 mm
19:15 -8.4 °C -16.6 °C 1029.7 hPa Calm     52% 0 mm
19:20 -8.6 °C -16.7 °C 1029.7 hPa Calm     52% 0 mm
19:25 -8.6 °C -16.2 °C 1029.7 hPa Calm     54% 0 mm
19:30 -8.7 °C -15.7 °C 1029.7 hPa Calm     57% 0 mm
19:35 -8.8 °C -15.6 °C 1029.7 hPa Calm     58% 0 mm
19:39 -8.8 °C -16 °C 1029.7 hPa Calm     56% 0 mm
19:45 -8.7 °C -15.9 °C 1029.7 hPa Calm     56% 0 mm
19:50 -8.9 °C -15.7 °C 1029.7 hPa Calm     58% 0 mm
19:55 -9.1 °C -15.4 °C 1030 hPa Calm     60% 0 mm
19:59 -9.2 °C -15.5 °C 1030 hPa Calm     60% 0 mm
20:05 -9.3 °C -15.8 °C 1030 hPa Calm   3.2 km/h 59% 0 mm
20:10 -9.2 °C -16.1 °C 1030 hPa Calm   3.2 km/h 57% 0 mm
20:14 -9.1 °C -16 °C 1029.7 hPa Calm   1.6 km/h 57% 0 mm
20:20 -9.1 °C -16.3 °C 1029.7 hPa Calm     56% 0 mm
20:25 -9.1 °C -16.3 °C 1029.7 hPa Calm   1.6 km/h 56% 0 mm
20:30 -9.1 °C -15.7 °C 1030 hPa Calm   1.6 km/h 59% 0 mm
20:35 -9.2 °C -15.8 °C 1030 hPa Calm     59% 0 mm
20:40 -9.3 °C -15.6 °C 1030 hPa Calm     60% 0 mm
20:45 -9.3 °C -15.4 °C 1030 hPa Calm     61% 0 mm
20:50 -9.3 °C -15.9 °C 1030 hPa Calm     59% 0 mm
21:00 -9.4 °C -15.4 °C 1030.4 hPa Calm     62% 0 mm
21:05 -9.5 °C -15.4 °C 1030.4 hPa Calm     62% 0 mm
21:09 -9.6 °C -15.5 °C 1030.4 hPa Calm     62% 0 mm
21:15 -9.4 °C -15.4 °C 1030.4 hPa Calm   1.6 km/h 62% 0 mm
21:19 -9.3 °C -15.4 °C 1030.4 hPa NE 1.6 km/h 3.2 km/h 61% 0 mm
21:25 -9.2 °C -15.7 °C 1030 hPa East 1.6 km/h 6.4 km/h 59% 0 mm
21:30 -8.9 °C -15.9 °C 1030 hPa Calm   6.4 km/h 57% 0 mm
21:40 -8.9 °C -15.9 °C 1030 hPa Calm   6.4 km/h 57% 0 mm
21:44 -9 °C -15.8 °C 1030.4 hPa Calm   6.4 km/h 58% 0 mm
21:50 -9.2 °C -15.7 °C 1030 hPa Calm   4.8 km/h 59% 0 mm
21:55 -9.3 °C -15.7 °C 1030 hPa Calm   4.8 km/h 60% 0 mm
22:00 -9.5 °C -15.4 °C 1030 hPa Calm   4.8 km/h 62% 0 mm
22:04 -9.6 °C -15.3 °C 1030 hPa Calm   3.2 km/h 63% 0 mm
22:10 -9.7 °C -15.2 °C 1030.4 hPa Calm   3.2 km/h 64% 0 mm
22:15 -9.8 °C -15.2 °C 1030.4 hPa Calm   3.2 km/h 65% 0 mm
22:19 -10.1 °C -15.6 °C 1030.4 hPa Calm     64% 0 mm
22:24 -10.3 °C -15.8 °C 1030 hPa Calm     64% 0 mm
22:30 -10.5 °C -16 °C 1030 hPa Calm     64% 0 mm
22:40 -10.8 °C -16.3 °C 1030 hPa Calm     64% 0 mm
22:45 -11.1 °C -16.4 °C 1030 hPa Calm     65% 0 mm
22:55 -11.3 °C -16.2 °C 1030 hPa Calm     67% 0 mm
23:00 -11.6 °C -16.7 °C 1030 hPa Calm     66% 0 mm
23:04 -12 °C -17.2 °C 1030 hPa Calm     65% 0 mm
23:09 -12.2 °C -17.2 °C 1030 hPa Calm     66% 0 mm
23:15 -12.1 °C -17.1 °C 1030 hPa Calm     66% 0 mm
23:20 -12 °C -16.9 °C 1030 hPa Calm     67% 0 mm
23:25 -11.9 °C -16.6 °C 1030 hPa Calm     68% 0 mm
23:30 -12.1 °C -16.9 °C 1030 hPa Calm     67% 0 mm
23:40 -12.3 °C -17.2 °C 1030 hPa Calm     67% 0 mm
23:44 -12.6 °C -17.4 °C 1030 hPa Calm     67% 0 mm
23:50 -12.7 °C -17.4 °C 1030 hPa Calm     68% 0 mm
23:54 -12.9 °C -17.6 °C 1030 hPa Calm     68% 0 mm
23:59 -12.7 °C -17.2 °C 1030 hPa Calm     69% 0 mm
Westford Weather
Compliments of Weather Underground

 
 
Current Radar Loop:

Copyright © WestfordWeather.net 2007-2014. All rights reserved.